Jalma Topic — A8IQ6 — position and weather

sailwx.info

Track history (hours):
 
Tides and Currents Weather Stations Pressure Air Temp Water Temp Dewpoint Dewpoint Depression Visibility Wind Speed Wind Dir Waves Ship Positions

Jalma Topic

Last reported at 2014-Aug-13 21:27 UTC. Time now 2014-Aug-20 08:49 UTC.
Position S 33°21' E 027°57'.

Length 183 m; draft 6.9 m.

Type: Cargo ship. MMSI: 636012871.

Date/timePositionNaut miles runAvg speedWind from/ knotsBaromVisibWave heightAir tempDewpointWater temp
2014-Aug-13 21:27S 33°21' E 027°57'9 9.0
2014-Aug-13 20:30S 33°25' E 027°48'9 9.5
2014-Aug-13 19:31S 33°29' E 027°38'3310.9
2014-Aug-13 16:27S 33°43' E 027°01'1612.3
2014-Aug-13 15:10S 33°50' E 026°44'912.7
2014-Aug-13 14:29S 33°53' E 026°35'1112.3
2014-Aug-13 13:33S 33°55' E 026°21'  
2014-Aug-11 09:32S 33°56' E 025°39'7 0.2
2014-Aug-09 22:11S 33°51' E 025°44'0 0.0
2014-Aug-09 20:20S 33°51' E 025°44'52 1.1
2014-Aug-07 19:33S 33°50' E 026°46'1614.2
2014-Aug-07 18:25S 33°43' E 027°04'3213.6
2014-Aug-07 16:05S 33°25' E 027°36'18113.0
2014-Aug-07 02:11S 31°18' E 030°07'2312.5
2014-Aug-07 00:21S 31°00' E 030°24'2312.8
2014-Aug-06 22:32S 30°40' E 030°38'57 1.6
2014-Aug-05 11:32S 29°49' E 031°07'6 1.1
2014-Aug-05 06:28S 29°46' E 031°13'6111.7
2014-Aug-05 01:16S 29°14' E 032°12'3415.7
2014-Aug-04 23:04S 28°47' E 032°37'  
Track history (hours):
 
Tides and Currents Weather Stations Pressure Air Temp Water Temp Dewpoint Dewpoint Depression Visibility Wind Speed Wind Dir Waves Ship Positions

Jalma Topic

Last reported at 2014-Aug-13 21:27 UTC. Time now 2014-Aug-20 08:49 UTC.
Position S 33°21' E 027°57'.

Length 183 m; draft 6.9 m.

Type: Cargo ship. MMSI: 636012871.

Date/timePositionNaut miles runAvg speedWind from/ knotsBaromVisibWave heightAir tempDewpointWater temp
2014-Aug-13 21:27S 33°21' E 027°57'9 9.0
2014-Aug-13 20:30S 33°25' E 027°48'9 9.5
2014-Aug-13 19:31S 33°29' E 027°38'3310.9
2014-Aug-13 16:27S 33°43' E 027°01'1612.3
2014-Aug-13 15:10S 33°50' E 026°44'912.7
2014-Aug-13 14:29S 33°53' E 026°35'1112.3
2014-Aug-13 13:33S 33°55' E 026°21'  
2014-Aug-11 09:32S 33°56' E 025°39'7 0.2
2014-Aug-09 22:11S 33°51' E 025°44'0 0.0
2014-Aug-09 20:20S 33°51' E 025°44'52 1.1
2014-Aug-07 19:33S 33°50' E 026°46'1614.2
2014-Aug-07 18:25S 33°43' E 027°04'3213.6
2014-Aug-07 16:05S 33°25' E 027°36'18113.0
2014-Aug-07 02:11S 31°18' E 030°07'2312.5
2014-Aug-07 00:21S 31°00' E 030°24'2312.8
2014-Aug-06 22:32S 30°40' E 030°38'57 1.6
2014-Aug-05 11:32S 29°49' E 031°07'6 1.1
2014-Aug-05 06:28S 29°46' E 031°13'6111.7
2014-Aug-05 01:16S 29°14' E 032°12'3415.7
2014-Aug-04 23:04S 28°47' E 032°37'  

Dump ship's entire track history